Time;durP1;ratioP1;P1;durP2;ratioP2;P2;SDS_P1;SDS_P2;PMS_P1;PMS_P2;Temp;Humidity;BMP_temperature;BMP_pressure;BME280_temperature;BME280_humidity;BME280_pressure;Samples;Min_cycle;Max_cycle;Signal;HPM_P1;HPM_P2
2021/06/22 02:27:31;;;;;;;11.45;6.47;;;;;;;;;;5060930;27;20949;-81
2021/06/22 02:29:58;;;;;;;12.57;6.30;;;;;;;;;;5050365;28;20125;-81
2021/06/22 02:32:25;;;;;;;13.52;6.18;;;;;;;;;;5028250;28;20040;-81
2021/06/22 02:34:51;;;;;;;17.15;6.03;;;;;;;;;;5031512;28;20040;-87
2021/06/22 02:37:18;;;;;;;10.75;5.93;;;;;;;;;;5043027;28;20514;-81
2021/06/22 02:39:45;;;;;;;12.77;7.80;;;;;;;;;;5058408;28;20037;-82
2021/06/22 02:42:11;;;;;;;11.70;7.68;;;;;;;;;;5048071;28;20495;-81
2021/06/22 02:44:37;;;;;;;10.80;5.15;;;;;;;;;;5053917;28;20048;-82
2021/06/22 02:47:03;;;;;;;10.38;5.07;;;;;;;;;;5063070;28;20048;-81
2021/06/22 02:49:29;;;;;;;8.88;5.03;;;;;;;;;;5051670;28;20029;-87
2021/06/22 02:51:57;;;;;;;11.90;5.13;;;;;;;;;;5061500;28;20036;-81
2021/06/22 02:54:23;;;;;;;14.55;4.75;;;;;;;;;;5036038;28;20033;-81
2021/06/22 02:56:49;;;;;;;7.80;4.68;;;;;;;;;;5038234;28;20583;-82
2021/06/22 02:59:15;;;;;;;7.38;3.53;;;;;;;;;;5035057;28;20410;-88
2021/06/22 03:01:41;;;;;;;10.65;4.10;;;;;;;;;;5003546;28;20044;-81
2021/06/22 03:04:07;;;;;;;8.98;4.57;;;;;;;;;;5038370;28;20033;-79
2021/06/22 03:06:33;;;;;;;10.90;4.43;;;;;;;;;;5029752;28;20053;-83
2021/06/22 03:08:59;;;;;;;8.07;4.68;;;;;;;;;;5030020;28;20041;-80
2021/06/22 03:11:25;;;;;;;11.85;5.07;;;;;;;;;;5037331;28;20040;-83
2021/06/22 03:13:51;;;;;;;11.02;4.97;;;;;;;;;;5031579;28;20084;-80
2021/06/22 03:16:17;;;;;;;9.75;5.13;;;;;;;;;;5026873;28;20072;-80
2021/06/22 03:18:43;;;;;;;14.10;5.32;;;;;;;;;;5033404;28;20037;-80
2021/06/22 03:21:09;;;;;;;10.27;4.90;;;;;;;;;;5027380;28;20037;-80
2021/06/22 03:23:35;;;;;;;9.82;4.38;;;;;;;;;;5041590;28;20040;-81
2021/06/22 03:26:01;;;;;;;9.43;4.82;;;;;;;;;;5046964;28;20128;-80
2021/06/22 03:28:27;;;;;;;9.93;4.53;;;;;;;;;;5046484;28;20586;-86
2021/06/22 03:30:53;;;;;;;8.98;4.50;;;;;;;;;;5056822;28;20037;-81
2021/06/22 03:33:20;;;;;;;10.60;4.68;;;;;;;;;;5071548;28;20040;-80
2021/06/22 03:35:46;;;;;;;9.10;4.55;;;;;;;;;;5038757;28;20053;-81
2021/06/22 03:38:12;;;;;;;11.65;5.05;;;;;;;;;;5035416;28;20506;-81
2021/06/22 03:40:38;;;;;;;12.18;4.18;;;;;;;;;;5035342;28;20048;-83
2021/06/22 03:43:05;;;;;;;10.27;3.63;;;;;;;;;;5041665;28;20178;-80
2021/06/22 03:45:31;;;;;;;8.27;3.88;;;;;;;;;;5036200;28;20041;-81
2021/06/22 03:47:57;;;;;;;9.07;3.92;;;;;;;;;;5033798;28;20040;-80
2021/06/22 03:50:23;;;;;;;7.85;4.50;;;;;;;;;;5045040;28;20466;-85
2021/06/22 03:52:49;;;;;;;7.00;3.60;;;;;;;;;;5036401;28;20069;-80
2021/06/22 03:55:31;;;;;;;8.30;3.72;;;;;;;;;;5043400;28;20732;-81
2021/06/22 03:58:01;;;;;;;8.10;3.45;;;;;;;;;;5046206;28;20064;-82
2021/06/22 04:00:29;;;;;;;8.95;3.60;;;;;;;;;;5024859;28;20045;-81
2021/06/22 04:02:57;;;;;;;9.30;3.50;;;;;;;;;;5027514;28;20116;-81
2021/06/22 04:05:23;;;;;;;8.32;3.47;;;;;;;;;;5038951;28;20123;-80
2021/06/22 04:07:49;;;;;;;7.05;3.17;;;;;;;;;;5042491;28;20115;-80
2021/06/22 04:10:15;;;;;;;11.30;3.95;;;;;;;;;;5035671;28;20071;-80
2021/06/22 04:12:41;;;;;;;11.30;3.95;;;;;;;;;;5051474;28;20104;-80
2021/06/22 04:15:08;;;;;;;9.50;3.88;;;;;;;;;;5029738;28;20045;-81
2021/06/22 04:17:34;;;;;;;12.23;4.30;;;;;;;;;;5023896;28;20037;-80
2021/06/22 04:20:00;;;;;;;9.05;4.10;;;;;;;;;;5030509;28;20048;-82
2021/06/22 04:22:26;;;;;;;8.52;4.20;;;;;;;;;;5043054;28;20045;-81
2021/06/22 04:24:52;;;;;;;7.53;4.18;;;;;;;;;;5044817;28;20741;-80
2021/06/22 04:27:19;;;;;;;7.72;4.57;;;;;;;;;;5024404;28;20098;-81
2021/06/22 04:29:47;;;;;;;8.25;4.40;;;;;;;;;;5025526;28;20049;-85
2021/06/22 04:32:13;;;;;;;6.55;4.30;;;;;;;;;;5024809;28;20084;-81
2021/06/22 04:34:39;;;;;;;9.68;5.22;;;;;;;;;;5023801;28;20099;-81
2021/06/22 04:37:05;;;;;;;9.13;6.25;;;;;;;;;;5043804;28;20128;-80
2021/06/22 04:39:31;;;;;;;10.73;5.13;;;;;;;;;;5043922;28;20036;-81
2021/06/22 04:41:57;;;;;;;8.50;4.85;;;;;;;;;;5044093;28;20033;-80
2021/06/22 04:44:25;;;;;;;12.30;6.93;;;;;;;;;;5042909;28;20051;-80
2021/06/22 04:46:51;;;;;;;13.88;6.50;;;;;;;;;;5062576;28;20040;-81
2021/06/22 04:49:17;;;;;;;11.15;6.38;;;;;;;;;;5062834;28;20488;-82
2021/06/22 04:51:43;;;;;;;21.55;13.02;;;;;;;;;;5056623;28;20044;-80
2021/06/22 04:54:10;;;;;;;30.92;19.38;;;;;;;;;;5045342;28;20040;-81
2021/06/22 04:56:36;;;;;;;18.10;11.88;;;;;;;;;;5043021;28;20551;-80
2021/06/22 04:59:03;;;;;;;14.50;8.45;;;;;;;;;;5044870;28;20045;-81
2021/06/22 05:01:29;;;;;;;9.82;5.43;;;;;;;;;;5029472;28;20041;-80
2021/06/22 05:03:55;;;;;;;9.15;5.85;;;;;;;;;;5023711;28;20492;-83
2021/06/22 05:06:21;;;;;;;14.30;7.07;;;;;;;;;;5043958;28;20445;-80
2021/06/22 05:08:47;;;;;;;12.20;6.90;;;;;;;;;;5039207;28;20063;-85
2021/06/22 05:11:13;;;;;;;12.82;6.25;;;;;;;;;;5067369;28;20065;-81
2021/06/22 05:13:40;;;;;;;10.55;5.97;;;;;;;;;;5051441;28;20132;-80
2021/06/22 05:16:07;;;;;;;7.38;5.47;;;;;;;;;;5038494;28;20057;-81
2021/06/22 05:18:33;;;;;;;12.60;5.78;;;;;;;;;;5023387;28;20412;-86
2021/06/22 05:20:59;;;;;;;8.68;5.10;;;;;;;;;;5024359;28;20033;-81
2021/06/22 05:23:25;;;;;;;12.93;5.07;;;;;;;;;;5023440;28;20033;-80
2021/06/22 05:25:51;;;;;;;12.07;4.38;;;;;;;;;;5023009;28;20053;-80
2021/06/22 05:28:17;;;;;;;13.93;4.97;;;;;;;;;;5039576;28;20037;-80
2021/06/22 05:30:44;;;;;;;10.07;4.10;;;;;;;;;;5061679;28;20553;-80
2021/06/22 05:33:10;;;;;;;9.43;3.85;;;;;;;;;;5042156;28;20055;-80
2021/06/22 05:35:36;;;;;;;7.18;4.20;;;;;;;;;;5043893;28;20036;-80
2021/06/22 05:38:02;;;;;;;11.10;4.35;;;;;;;;;;5041279;28;20037;-80
2021/06/22 05:40:28;;;;;;;11.50;5.63;;;;;;;;;;5058622;28;20063;-86
2021/06/22 05:42:54;;;;;;;9.10;4.45;;;;;;;;;;5060905;28;20097;-80
2021/06/22 05:45:20;;;;;;;9.82;4.57;;;;;;;;;;5063708;28;20079;-80
2021/06/22 05:47:49;;;;;;;7.43;4.85;;;;;;;;;;5061800;28;20112;-81
2021/06/22 05:50:15;;;;;;;12.27;6.95;;;;;;;;;;5063440;28;20029;-81
2021/06/22 05:52:41;;;;;;;11.63;6.47;;;;;;;;;;5045818;28;20041;-80
2021/06/22 05:55:16;;;;;;;13.55;6.13;;;;;;;;;;5043727;28;20044;-81
2021/06/22 05:57:46;;;;;;;11.07;6.70;;;;;;;;;;5040844;28;20065;-80
2021/06/22 06:00:12;;;;;;;10.88;6.15;;;;;;;;;;5023848;28;20070;-82
2021/06/22 06:02:38;;;;;;;12.75;6.45;;;;;;;;;;5061659;28;20074;-80
2021/06/22 06:05:04;;;;;;;10.85;6.32;;;;;;;;;;5062480;28;20037;-84
2021/06/22 06:07:30;;;;;;;14.10;6.65;;;;;;;;;;5059969;28;20479;-81
2021/06/22 06:09:56;;;;;;;10.85;6.43;;;;;;;;;;5045924;28;20954;-81
2021/06/22 06:12:22;;;;;;;15.57;7.75;;;;;;;;;;5041399;28;20041;-81
2021/06/22 06:14:48;;;;;;;13.10;6.97;;;;;;;;;;5042630;28;20036;-81
2021/06/22 06:17:15;;;;;;;16.83;9.25;;;;;;;;;;5062733;28;20036;-81
2021/06/22 06:19:41;;;;;;;15.00;8.75;;;;;;;;;;5042695;28;20120;-81
2021/06/22 06:22:07;;;;;;;16.30;9.32;;;;;;;;;;5063290;28;20554;-83
2021/06/22 06:24:33;;;;;;;13.63;9.23;;;;;;;;;;5062420;28;20040;-80
2021/06/22 06:31:54;;;;;;;17.33;9.65;;;;;;;;;;5058120;28;20059;-81
2021/06/22 06:34:20;;;;;;;15.23;8.93;;;;;;;;;;5039110;28;20672;-80
2021/06/22 06:36:47;;;;;;;17.80;9.98;;;;;;;;;;5005833;28;20575;-80
2021/06/22 06:39:13;;;;;;;16.85;10.90;;;;;;;;;;5042888;28;20403;-85
2021/06/22 06:41:39;;;;;;;15.10;8.13;;;;;;;;;;5043326;28;20082;-81
2021/06/22 06:44:05;;;;;;;16.48;9.75;;;;;;;;;;5062031;28;20036;-81
2021/06/22 06:46:31;;;;;;;17.95;9.82;;;;;;;;;;5054804;28;20450;-82
2021/06/22 06:48:57;;;;;;;18.95;9.73;;;;;;;;;;5057590;28;20040;-81
2021/06/22 06:51:23;;;;;;;13.60;8.88;;;;;;;;;;5056068;28;20029;-82
2021/06/22 06:53:50;;;;;;;14.18;9.43;;;;;;;;;;5046991;28;20099;-81
2021/06/22 06:56:16;;;;;;;19.60;12.27;;;;;;;;;;5044754;28;20057;-82
2021/06/22 06:58:42;;;;;;;19.08;10.00;;;;;;;;;;5061094;28;20048;-81
2021/06/22 07:01:08;;;;;;;18.52;11.20;;;;;;;;;;5023881;28;20041;-85
2021/06/22 07:03:36;;;;;;;20.45;12.57;;;;;;;;;;5025536;28;20399;-82
2021/06/22 07:06:02;;;;;;;26.23;13.55;;;;;;;;;;5052277;28;20036;-81
2021/06/22 07:08:28;;;;;;;26.00;14.40;;;;;;;;;;5060711;28;20413;-81
2021/06/22 07:10:54;;;;;;;22.20;13.20;;;;;;;;;;5061144;28;20437;-86
2021/06/22 07:13:21;;;;;;;24.55;14.50;;;;;;;;;;5065531;28;20028;-81
2021/06/22 07:15:47;;;;;;;23.17;13.50;;;;;;;;;;5060292;28;20542;-81
2021/06/22 07:18:13;;;;;;;21.00;10.98;;;;;;;;;;5044584;28;20037;-80
2021/06/22 07:20:39;;;;;;;21.50;12.50;;;;;;;;;;5046892;28;20059;-84
2021/06/22 07:23:05;;;;;;;15.63;10.35;;;;;;;;;;5044990;28;20418;-81
2021/06/22 07:25:32;;;;;;;15.38;8.02;;;;;;;;;;5045135;28;20135;-81
2021/06/22 07:27:58;;;;;;;11.57;8.18;;;;;;;;;;5045078;28;20072;-82
2021/06/22 07:30:24;;;;;;;10.25;6.50;;;;;;;;;;5045174;28;20052;-81
2021/06/22 07:32:50;;;;;;;12.68;6.53;;;;;;;;;;5064012;28;20059;-82
2021/06/22 07:35:18;;;;;;;14.02;7.93;;;;;;;;;;5045175;28;20037;-80
2021/06/22 07:37:47;;;;;;;11.82;7.07;;;;;;;;;;5045690;28;20037;-80
2021/06/22 07:40:14;;;;;;;8.40;5.65;;;;;;;;;;5055052;28;20068;-81
2021/06/22 07:42:40;;;;;;;10.98;6.15;;;;;;;;;;5044675;28;20033;-82
2021/06/22 07:45:08;;;;;;;8.88;5.40;;;;;;;;;;5043312;28;20033;-83
2021/06/22 07:47:34;;;;;;;12.10;5.78;;;;;;;;;;5044665;28;20037;-81
2021/06/22 07:50:00;;;;;;;11.98;6.72;;;;;;;;;;5026005;28;20087;-80
2021/06/22 07:52:26;;;;;;;12.05;6.95;;;;;;;;;;5035349;28;20037;-81
2021/06/22 07:54:52;;;;;;;11.85;6.32;;;;;;;;;;5033999;28;20041;-80
2021/06/22 07:57:18;;;;;;;7.70;5.03;;;;;;;;;;5027989;28;20052;-81
2021/06/22 07:59:50;;;;;;;10.55;5.85;;;;;;;;;;5038355;28;20407;-80
2021/06/22 08:02:16;;;;;;;11.05;5.05;;;;;;;;;;5055468;28;20041;-80
2021/06/22 08:04:42;;;;;;;11.90;6.25;;;;;;;;;;5045723;28;20040;-81
2021/06/22 08:07:08;;;;;;;9.63;6.40;;;;;;;;;;5041926;28;20037;-81
2021/06/22 08:09:34;;;;;;;14.02;6.00;;;;;;;;;;5044892;28;20052;-80
2021/06/22 08:12:01;;;;;;;11.40;5.70;;;;;;;;;;5043313;28;20483;-84
2021/06/22 08:14:27;;;;;;;10.32;5.80;;;;;;;;;;5045352;28;20115;-81
2021/06/22 08:16:56;;;;;;;12.15;5.50;;;;;;;;;;5037477;28;20523;-81
2021/06/22 08:19:22;;;;;;;10.80;6.93;;;;;;;;;;5016573;28;20038;-82
2021/06/22 08:21:48;;;;;;;14.63;6.82;;;;;;;;;;5025841;28;20041;-81
2021/06/22 08:24:14;;;;;;;12.70;6.57;;;;;;;;;;5023623;28;20053;-86
2021/06/22 08:26:40;;;;;;;15.15;8.30;;;;;;;;;;5005488;28;20069;-83
2021/06/22 08:29:06;;;;;;;13.50;8.23;;;;;;;;;;5033859;28;20480;-80
2021/06/22 08:31:32;;;;;;;12.40;7.03;;;;;;;;;;5025295;28;20044;-82
2021/06/22 08:33:59;;;;;;;14.57;7.43;;;;;;;;;;5012703;28;20095;-81
2021/06/22 08:36:25;;;;;;;13.18;6.85;;;;;;;;;;5043739;28;20178;-81
2021/06/22 08:38:51;;;;;;;10.48;6.60;;;;;;;;;;5044000;28;20040;-81
2021/06/22 08:41:18;;;;;;;14.82;7.55;;;;;;;;;;5055171;28;20107;-81
2021/06/22 08:43:44;;;;;;;14.10;6.53;;;;;;;;;;5049768;28;20052;-81
2021/06/22 08:46:10;;;;;;;11.10;6.53;;;;;;;;;;5053007;28;20071;-82
2021/06/22 08:48:36;;;;;;;15.85;6.78;;;;;;;;;;5062062;28;20098;-82
2021/06/22 08:51:02;;;;;;;15.10;5.75;;;;;;;;;;5046731;28;20465;-85
2021/06/22 08:53:28;;;;;;;13.40;5.70;;;;;;;;;;5050987;28;20048;-81
2021/06/22 08:55:54;;;;;;;11.00;5.63;;;;;;;;;;5037228;28;20045;-81
2021/06/22 08:58:20;;;;;;;15.15;6.10;;;;;;;;;;5025431;28;20041;-83
2021/06/22 09:00:47;;;;;;;11.98;6.72;;;;;;;;;;5028893;28;20051;-81
2021/06/22 09:03:24;;;;;;;13.82;5.97;;;;;;;;;;5057313;28;20059;-82
2021/06/22 09:05:53;;;;;;;14.35;5.25;;;;;;;;;;5006661;28;20543;-81
2021/06/22 09:08:19;;;;;;;11.18;5.03;;;;;;;;;;5039625;28;20353;-81
2021/06/22 09:10:48;;;;;;;11.48;4.63;;;;;;;;;;5023722;28;20036;-82
2021/06/22 09:13:15;;;;;;;17.38;5.47;;;;;;;;;;5044567;28;20040;-82
2021/06/22 09:15:43;;;;;;;14.30;6.85;;;;;;;;;;5045379;28;20483;-85
2021/06/22 09:18:27;;;;;;;10.50;5.63;;;;;;;;;;5041618;28;20120;-81
2021/06/22 09:20:57;;;;;;;11.45;5.15;;;;;;;;;;5041485;28;20040;-82
2021/06/22 09:23:42;;;;;;;9.85;4.80;;;;;;;;;;5019249;28;20037;-83
2021/06/22 09:26:09;;;;;;;12.35;4.75;;;;;;;;;;5023112;28;20056;-82
2021/06/22 09:28:35;;;;;;;12.55;6.05;;;;;;;;;;5023547;28;20144;-81
2021/06/22 09:31:03;;;;;;;14.15;5.70;;;;;;;;;;5021911;28;20121;-81
2021/06/22 09:33:31;;;;;;;19.70;7.13;;;;;;;;;;5020364;28;20038;-83
2021/06/22 09:36:16;;;;;;;11.43;5.32;;;;;;;;;;5021347;28;20053;-79
2021/06/22 09:38:49;;;;;;;12.65;5.05;;;;;;;;;;5035947;28;20527;-82
2021/06/22 09:41:17;;;;;;;21.58;6.55;;;;;;;;;;5025731;28;20044;-85
2021/06/22 09:43:51;;;;;;;16.05;6.13;;;;;;;;;;5047939;28;20048;-87
2021/06/22 09:46:29;;;;;;;12.75;4.93;;;;;;;;;;5032524;28;20044;-84
2021/06/22 09:48:58;;;;;;;16.83;6.15;;;;;;;;;;5063683;28;20037;-87
2021/06/22 09:51:29;;;;;;;;;;;;;;;;;;5044864;28;20037;-86
2021/06/22 09:53:55;;;;;;;12.63;5.50;;;;;;;;;;5060529;28;19973;-84
2021/06/22 09:56:25;;;;;;;18.02;6.00;;;;;;;;;;5038689;28;20125;-85
2021/06/22 09:58:53;;;;;;;11.50;5.82;;;;;;;;;;5034104;28;20041;-84
2021/06/22 10:01:37;;;;;;;14.57;5.38;;;;;;;;;;5039346;28;20045;-81
2021/06/22 10:04:13;;;;;;;17.20;6.45;;;;;;;;;;5026618;28;20127;-81
2021/06/22 10:06:40;;;;;;;14.95;7.28;;;;;;;;;;5020898;28;20052;-82
2021/06/22 10:09:08;;;;;;;22.27;6.93;;;;;;;;;;5041805;28;20094;-85
2021/06/22 10:11:35;;;;;;;15.23;6.97;;;;;;;;;;5031165;28;20071;-82
2021/06/22 10:14:03;;;;;;;18.55;6.30;;;;;;;;;;5014782;28;20045;-81
2021/06/22 10:16:31;;;;;;;14.40;7.10;;;;;;;;;;5028701;28;20060;-82
2021/06/22 10:18:58;;;;;;;14.52;6.28;;;;;;;;;;5038576;28;20033;-84
2021/06/22 10:21:24;;;;;;;10.07;5.47;;;;;;;;;;5021314;28;20105;-83
2021/06/22 10:23:50;;;;;;;12.88;5.50;;;;;;;;;;5041790;28;20037;-82
2021/06/22 10:26:17;;;;;;;12.95;4.72;;;;;;;;;;5024215;28;20048;-86
2021/06/22 10:28:45;;;;;;;12.70;4.20;;;;;;;;;;5020675;28;20045;-81
2021/06/22 10:31:11;;;;;;;11.60;5.13;;;;;;;;;;5020927;28;20037;-83
2021/06/22 10:33:37;;;;;;;12.15;4.90;;;;;;;;;;5025574;28;20041;-80
2021/06/22 10:36:04;;;;;;;10.75;5.57;;;;;;;;;;5021278;28;20545;-82
2021/06/22 10:38:38;;;;;;;14.30;6.20;;;;;;;;;;5043571;28;20099;-80
2021/06/22 10:41:05;;;;;;;11.43;6.28;;;;;;;;;;5060932;28;20102;-83
2021/06/22 10:43:35;;;;;;;12.20;5.03;;;;;;;;;;5057597;28;20041;-83
2021/06/22 10:46:06;;;;;;;16.05;5.80;;;;;;;;;;5040304;28;20487;-80
2021/06/22 10:48:39;;;;;;;10.88;6.70;;;;;;;;;;5044017;28;20381;-86
2021/06/22 10:51:24;;;;;;;15.55;6.57;;;;;;;;;;5034290;28;20415;-81
2021/06/22 10:53:50;;;;;;;8.57;5.40;;;;;;;;;;5025936;28;20045;-81
2021/06/22 10:56:18;;;;;;;15.32;6.82;;;;;;;;;;5044631;28;20048;-81
2021/06/22 10:59:04;;;;;;;12.50;6.32;;;;;;;;;;5029124;28;20071;-83
2021/06/22 11:01:51;;;;;;;12.35;6.93;;;;;;;;;;5034916;28;20125;-85
2021/06/22 11:04:17;;;;;;;10.05;6.20;;;;;;;;;;5025744;28;20445;-82
2021/06/22 11:06:59;;;;;;;11.48;6.07;;;;;;;;;;5038576;28;20033;-84
2021/06/22 11:09:25;;;;;;;14.20;6.72;;;;;;;;;;4978429;28;102526;-82
2021/06/22 11:12:10;;;;;;;18.23;5.68;;;;;;;;;;5013255;28;20522;-83
2021/06/22 11:14:55;;;;;;;9.35;5.78;;;;;;;;;;4998644;28;20041;-83
2021/06/22 11:17:39;;;;;;;10.60;5.07;;;;;;;;;;5037118;28;20053;-84
2021/06/22 11:20:05;;;;;;;14.05;5.97;;;;;;;;;;5019710;28;20041;-84
2021/06/22 11:22:50;;;;;;;10.00;5.57;;;;;;;;;;5017909;28;20095;-85
2021/06/22 11:25:16;;;;;;;14.43;5.72;;;;;;;;;;5017274;28;20041;-84
2021/06/22 11:28:00;;;;;;;8.90;4.95;;;;;;;;;;5008202;28;20125;-84
2021/06/22 11:30:45;;;;;;;9.75;4.63;;;;;;;;;;5004491;28;20061;-85
2021/06/22 11:33:29;;;;;;;7.15;4.10;;;;;;;;;;4999233;28;20096;-84
2021/06/22 11:36:15;;;;;;;11.85;4.40;;;;;;;;;;5024249;28;20081;-85
2021/06/22 11:38:42;;;;;;;9.25;4.25;;;;;;;;;;5022320;28;20122;-82
2021/06/22 11:41:15;;;;;;;9.40;4.30;;;;;;;;;;5005106;28;20561;-82
2021/06/22 11:43:59;;;;;;;6.97;4.03;;;;;;;;;;5020081;28;20046;-84
2021/06/22 11:46:32;;;;;;;8.27;4.18;;;;;;;;;;5004129;28;20042;-83
2021/06/22 11:48:58;;;;;;;5.15;3.70;;;;;;;;;;4998281;28;20044;-83
2021/06/22 11:51:43;;;;;;;11.77;4.13;;;;;;;;;;5010359;28;20561;-81
2021/06/22 11:54:09;;;;;;;8.18;3.80;;;;;;;;;;4994251;28;20029;-83
2021/06/22 11:56:36;;;;;;;10.02;3.75;;;;;;;;;;5010039;28;20081;-83
2021/06/22 11:59:02;;;;;;;9.05;3.90;;;;;;;;;;4998791;28;20041;-81
2021/06/22 12:01:28;;;;;;;12.10;4.15;;;;;;;;;;5031881;28;20033;-83
2021/06/22 12:03:54;;;;;;;8.45;3.58;;;;;;;;;;5023016;28;20037;-82
2021/06/22 12:06:23;;;;;;;9.57;3.33;;;;;;;;;;5022595;28;20484;-86
2021/06/22 12:08:50;;;;;;;7.20;3.22;;;;;;;;;;5020017;28;20069;-82
2021/06/22 12:11:28;;;;;;;6.45;3.00;;;;;;;;;;4979867;28;20068;-83
2021/06/22 12:13:54;;;;;;;8.23;2.80;;;;;;;;;;5015520;28;20041;-83
2021/06/22 12:16:23;;;;;;;7.72;3.30;;;;;;;;;;4999636;28;20175;-82
2021/06/22 12:18:51;;;;;;;6.15;2.95;;;;;;;;;;5031629;28;20487;-83
2021/06/22 12:21:17;;;;;;;7.25;3.40;;;;;;;;;;5021855;28;20041;-80
2021/06/22 12:23:43;;;;;;;8.98;3.10;;;;;;;;;;5007121;28;20036;-85
2021/06/22 12:26:11;;;;;;;6.68;3.00;;;;;;;;;;5023353;28;20053;-81
2021/06/22 12:28:37;;;;;;;6.30;3.00;;;;;;;;;;5009889;28;20057;-81
2021/06/22 12:31:06;;;;;;;5.80;2.53;;;;;;;;;;5016591;28;20053;-81
2021/06/22 12:33:36;;;;;;;9.43;2.95;;;;;;;;;;5009480;28;20038;-81
2021/06/22 12:36:04;;;;;;;11.75;3.28;;;;;;;;;;4993176;28;20045;-81
2021/06/22 12:38:30;;;;;;;8.13;3.30;;;;;;;;;;5020722;28;20029;-82
2021/06/22 12:40:58;;;;;;;7.85;3.20;;;;;;;;;;5023870;28;20094;-79
2021/06/22 12:43:42;;;;;;;10.43;3.50;;;;;;;;;;5018365;28;20046;-81
2021/06/22 12:46:08;;;;;;;6.95;3.35;;;;;;;;;;5016359;28;20121;-79
2021/06/22 12:48:36;;;;;;;6.85;2.88;;;;;;;;;;5004485;28;20362;-78
2021/06/22 12:51:02;;;;;;;5.05;2.80;;;;;;;;;;5026735;28;20064;-80
2021/06/22 12:53:29;;;;;;;8.43;3.10;;;;;;;;;;5021490;28;20116;-83
2021/06/22 12:56:27;;;;;;;8.18;2.78;;;;;;;;;;5021321;28;20412;-81
2021/06/22 12:58:57;;;;;;;5.57;2.78;;;;;;;;;;4993369;28;20048;-84
2021/06/22 13:01:27;;;;;;;5.80;2.67;;;;;;;;;;4990511;28;20175;-81
2021/06/22 13:03:54;;;;;;;10.07;3.17;;;;;;;;;;5018217;28;20033;-82
2021/06/22 13:06:27;;;;;;;7.07;2.70;;;;;;;;;;5018065;28;20084;-81
2021/06/22 13:08:56;;;;;;;6.15;2.58;;;;;;;;;;5017254;28;20563;-81
2021/06/22 13:11:26;;;;;;;10.55;2.78;;;;;;;;;;5018583;28;20033;-83
2021/06/22 13:14:05;;;;;;;9.07;3.50;;;;;;;;;;5009709;28;20519;-81
2021/06/22 13:16:31;;;;;;;6.40;3.25;;;;;;;;;;4997957;28;20037;-81
2021/06/22 13:19:04;;;;;;;6.80;3.60;;;;;;;;;;5013784;28;20030;-82
2021/06/22 13:21:45;;;;;;;10.43;3.63;;;;;;;;;;5000537;28;20411;-80
2021/06/22 13:24:12;;;;;;;5.05;3.20;;;;;;;;;;5022652;28;20041;-87
2021/06/22 13:26:40;;;;;;;5.75;3.70;;;;;;;;;;5015768;28;20538;-85
2021/06/22 13:29:07;;;;;;;6.97;3.30;;;;;;;;;;5002176;28;20042;-82
2021/06/22 13:31:36;;;;;;;7.85;3.80;;;;;;;;;;4977474;28;20425;-83
2021/06/22 13:34:01;;;;;;;;;;;;;;;;;;4995878;28;20049;-82
2021/06/22 13:36:28;;;;;;;11.98;3.80;;;;;;;;;;5002359;28;19940;-83
2021/06/22 13:39:21;;;;;;;7.85;3.45;;;;;;;;;;5021778;28;20039;-82
2021/06/22 13:41:49;;;;;;;8.30;3.85;;;;;;;;;;5019552;28;20033;-81
2021/06/22 13:44:34;;;;;;;8.70;3.42;;;;;;;;;;5022739;28;20044;-83
2021/06/22 13:47:00;;;;;;;10.07;3.60;;;;;;;;;;5010143;28;20119;-82
2021/06/22 13:49:36;;;;;;;14.13;4.60;;;;;;;;;;5018845;28;20038;-83
2021/06/22 13:52:03;;;;;;;7.03;3.58;;;;;;;;;;4989094;28;20048;-83
2021/06/22 13:54:29;;;;;;;9.48;3.67;;;;;;;;;;5016727;28;20088;-84
2021/06/22 13:56:55;;;;;;;7.97;3.45;;;;;;;;;;5020260;28;20037;-83
2021/06/22 13:59:21;;;;;;;7.45;3.00;;;;;;;;;;5015024;28;20044;-82
2021/06/22 14:01:50;;;;;;;6.55;2.92;;;;;;;;;;5010320;28;20083;-83
2021/06/22 14:04:16;;;;;;;6.45;3.03;;;;;;;;;;4999888;28;20077;-80
2021/06/22 14:06:42;;;;;;;8.30;3.40;;;;;;;;;;4983538;28;20128;-82
2021/06/22 14:09:08;;;;;;;8.43;3.38;;;;;;;;;;4989112;28;20172;-82
2021/06/22 14:11:34;;;;;;;8.45;3.42;;;;;;;;;;4991056;28;20177;-83
2021/06/22 14:14:00;;;;;;;15.23;4.13;;;;;;;;;;4993057;28;20038;-83
2021/06/22 14:16:30;;;;;;;7.38;2.78;;;;;;;;;;4990476;28;20125;-81
2021/06/22 14:18:56;;;;;;;6.72;3.88;;;;;;;;;;4979635;28;20066;-82
2021/06/22 14:21:22;;;;;;;9.18;3.90;;;;;;;;;;4970695;28;20401;-83
2021/06/22 14:23:48;;;;;;;8.13;3.10;;;;;;;;;;4993547;28;20492;-82
2021/06/22 14:26:14;;;;;;;8.45;2.90;;;;;;;;;;4993299;28;20087;-82
2021/06/22 14:28:41;;;;;;;4.38;1.90;;;;;;;;;;5001764;28;20054;-82
2021/06/22 14:31:08;;;;;;;6.88;2.58;;;;;;;;;;4992184;28;20054;-85
2021/06/22 14:33:34;;;;;;;5.82;2.15;;;;;;;;;;5023515;28;20129;-82
2021/06/22 14:36:00;;;;;;;4.72;2.38;;;;;;;;;;5010687;28;20511;-83
2021/06/22 14:38:27;;;;;;;7.43;2.42;;;;;;;;;;5006242;28;20042;-83
2021/06/22 14:40:53;;;;;;;8.07;2.20;;;;;;;;;;5004964;28;20038;-83
2021/06/22 14:43:19;;;;;;;5.05;2.35;;;;;;;;;;4986497;28;20036;-82
2021/06/22 14:45:45;;;;;;;3.92;1.63;;;;;;;;;;5010415;28;20042;-83
2021/06/22 14:48:13;;;;;;;3.90;1.60;;;;;;;;;;5012324;28;20543;-83
2021/06/22 14:50:39;;;;;;;6.03;1.73;;;;;;;;;;4996689;28;20042;-83
2021/06/22 14:53:11;;;;;;;6.13;1.77;;;;;;;;;;4982167;28;20034;-82
2021/06/22 14:55:41;;;;;;;12.07;2.67;;;;;;;;;;5008499;28;20030;-82
2021/06/22 14:58:10;;;;;;;2.50;1.63;;;;;;;;;;5007759;28;20144;-83
2021/06/22 15:00:38;;;;;;;7.30;2.08;;;;;;;;;;5006909;28;20037;-82
2021/06/22 15:03:04;;;;;;;4.60;1.70;;;;;;;;;;5001761;28;20054;-84
2021/06/22 15:05:31;;;;;;;4.00;1.63;;;;;;;;;;4974042;28;22001;-84
2021/06/22 15:07:58;;;;;;;4.82;2.60;;;;;;;;;;4975627;28;20586;-83
2021/06/22 15:10:26;;;;;;;6.05;2.75;;;;;;;;;;5008827;28;20038;-83
2021/06/22 15:12:52;;;;;;;4.40;2.00;;;;;;;;;;5012320;28;20044;-87
2021/06/22 15:15:19;;;;;;;6.57;2.65;;;;;;;;;;5030579;28;20136;-90
2021/06/22 15:17:50;;;;;;;5.50;2.03;;;;;;;;;;5012603;28;20029;-91
2021/06/22 15:20:17;;;;;;;5.07;2.35;;;;;;;;;;4981677;28;20037;-91
2021/06/22 15:22:42;;;;;;;5.55;2.90;;;;;;;;;;4991960;28;20030;-87
2021/06/22 15:25:10;;;;;;;4.25;2.33;;;;;;;;;;4982749;28;20084;-87
2021/06/22 15:27:39;;;;;;;4.80;2.60;;;;;;;;;;4987043;28;20065;-87
2021/06/22 15:30:07;;;;;;;6.97;2.40;;;;;;;;;;5003553;28;20033;-86
2021/06/22 15:32:33;;;;;;;4.50;2.50;;;;;;;;;;5007113;28;20038;-89
2021/06/22 15:34:59;;;;;;;7.07;2.65;;;;;;;;;;5001103;28;20535;-87
2021/06/22 15:37:25;;;;;;;5.45;2.58;;;;;;;;;;4988895;28;20084;-86
2021/06/22 15:39:51;;;;;;;6.72;2.70;;;;;;;;;;4974729;28;20500;-83
2021/06/22 15:42:17;;;;;;;6.45;2.17;;;;;;;;;;4998482;28;20109;-83
2021/06/22 15:44:43;;;;;;;6.00;2.40;;;;;;;;;;4992768;28;20050;-84
2021/06/22 15:47:10;;;;;;;6.57;2.20;;;;;;;;;;4979229;28;20049;-83
2021/06/22 15:49:36;;;;;;;4.50;2.03;;;;;;;;;;5007859;28;20076;-84
2021/06/22 15:52:03;;;;;;;7.40;2.25;;;;;;;;;;5017635;28;20045;-83
2021/06/22 15:54:29;;;;;;;5.13;2.47;;;;;;;;;;4996343;28;20419;-85
2021/06/22 15:56:56;;;;;;;6.85;2.30;;;;;;;;;;4989623;28;20506;-84
2021/06/22 15:59:23;;;;;;;6.13;2.95;;;;;;;;;;4979045;28;102446;-84
2021/06/22 16:01:50;;;;;;;4.90;2.58;;;;;;;;;;5034467;28;20088;-87
2021/06/22 16:04:16;;;;;;;7.57;2.70;;;;;;;;;;4996841;28;20040;-85
2021/06/22 16:06:43;;;;;;;5.60;2.33;;;;;;;;;;4998580;28;20121;-86
2021/06/22 16:09:09;;;;;;;4.50;2.60;;;;;;;;;;4995040;28;20058;-83
2021/06/22 16:11:35;;;;;;;4.10;2.42;;;;;;;;;;4995563;28;20037;-86
2021/06/22 16:14:02;;;;;;;6.18;2.30;;;;;;;;;;4989048;28;20050;-83
2021/06/22 16:16:29;;;;;;;6.53;2.72;;;;;;;;;;4959079;28;20100;-83
2021/06/22 16:18:59;;;;;;;7.75;2.50;;;;;;;;;;4994206;28;20048;-87
2021/06/22 16:21:27;;;;;;;7.28;2.78;;;;;;;;;;5002291;28;20034;-85
2021/06/22 16:23:53;;;;;;;7.60;2.50;;;;;;;;;;5008706;28;20037;-84
2021/06/22 16:26:19;;;;;;;5.60;2.47;;;;;;;;;;4989007;28;20060;-86
2021/06/22 16:28:46;;;;;;;6.15;2.15;;;;;;;;;;4998191;28;21062;-90
2021/06/22 16:31:15;;;;;;;6.43;2.78;;;;;;;;;;4982443;28;20034;-85
2021/06/22 16:33:42;;;;;;;6.10;2.65;;;;;;;;;;4977642;28;20041;-86
2021/06/22 16:36:08;;;;;;;7.68;3.10;;;;;;;;;;5003868;28;20045;-87
2021/06/22 16:38:34;;;;;;;6.22;2.63;;;;;;;;;;5019626;28;20034;-88
2021/06/22 16:41:00;;;;;;;6.82;2.88;;;;;;;;;;4999899;28;20036;-87
2021/06/22 16:43:26;;;;;;;7.43;2.70;;;;;;;;;;5024204;28;20753;-90
2021/06/22 16:45:52;;;;;;;5.43;2.65;;;;;;;;;;5026696;28;20114;-84
2021/06/22 16:48:18;;;;;;;4.45;2.42;;;;;;;;;;5027289;28;20036;-86
2021/06/22 16:50:44;;;;;;;5.00;2.92;;;;;;;;;;5017692;28;20423;-87
2021/06/22 16:53:11;;;;;;;3.72;2.17;;;;;;;;;;5015569;28;20120;-85
2021/06/22 16:55:37;;;;;;;6.60;2.45;;;;;;;;;;5014181;28;20033;-86
2021/06/22 16:58:04;;;;;;;5.05;2.67;;;;;;;;;;4996185;28;20061;-85
2021/06/22 17:00:34;;;;;;;9.65;2.90;;;;;;;;;;5012394;28;20036;-87
2021/06/22 17:03:01;;;;;;;5.30;2.40;;;;;;;;;;5001296;28;20048;-86
2021/06/22 17:05:27;;;;;;;5.35;2.75;;;;;;;;;;4990250;28;20034;-86
2021/06/22 17:07:54;;;;;;;5.72;2.47;;;;;;;;;;4981307;28;20037;-84
2021/06/22 17:10:22;;;;;;;6.50;2.22;;;;;;;;;;4989171;28;20512;-87
2021/06/22 17:12:50;;;;;;;4.65;2.88;;;;;;;;;;5009407;28;20056;-85